Time;durP1;ratioP1;P1;durP2;ratioP2;P2;SDS_P1;SDS_P2;PMS_P1;PMS_P2;Temp;Humidity;BMP_temperature;BMP_pressure;BME280_temperature;BME280_humidity;BME280_pressure;Samples;Min_cycle;Max_cycle;Signal;HPM_P1;HPM_P2
2022/06/10 00:00:17;;;;;;;11.88;2.33;;;;;;;;;;5078866;27;92418;-75
2022/06/10 00:02:43;;;;;;;12.52;2.45;;;;;;;;;;5077041;27;92439;-76
2022/06/10 00:05:11;;;;;;;14.23;2.28;;;;;;;;;;5084914;27;94278;-75
2022/06/10 00:07:37;;;;;;;13.15;3.05;;;;;;;;;;5083097;27;95510;-75
2022/06/10 00:10:04;;;;;;;11.52;2.58;;;;;;;;;;5085113;27;93855;-75
2022/06/10 00:12:30;;;;;;;18.42;3.08;;;;;;;;;;5090143;27;94237;-75
2022/06/10 00:14:57;;;;;;;15.25;2.80;;;;;;;;;;5088827;27;92463;-75
2022/06/10 00:17:23;;;;;;;13.77;3.10;;;;;;;;;;5079306;27;93041;-76
2022/06/10 00:19:49;;;;;;;11.73;2.78;;;;;;;;;;5076613;27;94586;-75
2022/06/10 00:22:16;;;;;;;11.75;2.60;;;;;;;;;;5056628;27;92482;-75
2022/06/10 00:24:42;;;;;;;11.70;2.38;;;;;;;;;;5060274;27;91773;-75
2022/06/10 00:27:08;;;;;;;11.45;2.85;;;;;;;;;;5064016;27;93203;-75
2022/06/10 00:29:35;;;;;;;10.07;2.67;;;;;;;;;;5057842;27;93136;-76
2022/06/10 00:32:01;;;;;;;14.88;2.90;;;;;;;;;;5054631;27;95786;-75
2022/06/10 00:34:27;;;;;;;17.52;3.10;;;;;;;;;;5053363;27;92938;-75
2022/06/10 00:36:54;;;;;;;14.15;3.35;;;;;;;;;;5060919;27;93306;-75
2022/06/10 00:39:20;;;;;;;10.18;2.85;;;;;;;;;;5049523;27;93464;-75
2022/06/10 00:41:46;;;;;;;14.15;3.20;;;;;;;;;;5065084;27;92440;-75
2022/06/10 00:44:31;;;;;;;11.40;2.38;;;;;;;;;;5063065;27;93829;-75
2022/06/10 00:46:58;;;;;;;12.85;2.83;;;;;;;;;;5057182;27;93271;-75
2022/06/10 00:49:24;;;;;;;15.15;3.45;;;;;;;;;;5059005;27;91730;-75
2022/06/10 00:51:52;;;;;;;12.10;2.50;;;;;;;;;;5063900;27;92568;-74
2022/06/10 00:54:23;;;;;;;12.48;3.25;;;;;;;;;;5049658;27;92398;-75
2022/06/10 00:56:51;;;;;;;10.68;2.97;;;;;;;;;;5052464;27;94854;-75
2022/06/10 00:59:25;;;;;;;8.80;2.63;;;;;;;;;;5057022;27;93444;-75
2022/06/10 01:01:57;;;;;;;12.88;2.53;;;;;;;;;;5054835;27;92845;-75
2022/06/10 01:04:24;;;;;;;11.95;3.10;;;;;;;;;;5064929;27;94304;-75
2022/06/10 01:06:50;;;;;;;16.52;2.90;;;;;;;;;;5052115;27;93213;-74
2022/06/10 01:09:17;;;;;;;8.68;2.63;;;;;;;;;;5041213;27;92519;-75
2022/06/10 01:11:52;;;;;;;9.18;2.70;;;;;;;;;;5070492;27;92935;-75
2022/06/10 01:14:24;;;;;;;22.10;3.92;;;;;;;;;;5056673;27;92412;-75
2022/06/10 01:17:17;;;;;;;13.13;2.75;;;;;;;;;;5058391;27;93215;-75
2022/06/10 01:19:43;;;;;;;13.25;2.67;;;;;;;;;;5052414;27;93158;-75
2022/06/10 01:22:19;;;;;;;14.35;2.70;;;;;;;;;;5050777;27;94849;-75
2022/06/10 01:25:04;;;;;;;15.13;3.30;;;;;;;;;;5053398;27;95522;-75
2022/06/10 01:27:49;;;;;;;19.77;3.05;;;;;;;;;;5054043;27;93566;-75
2022/06/10 01:30:21;;;;;;;12.10;3.00;;;;;;;;;;5052208;27;92415;-75
2022/06/10 01:32:53;;;;;;;20.08;3.70;;;;;;;;;;5054483;27;93345;-76
2022/06/10 01:35:28;;;;;;;10.52;2.88;;;;;;;;;;5051283;27;94152;-75
2022/06/10 01:38:01;;;;;;;12.40;3.42;;;;;;;;;;5052779;27;92618;-76
2022/06/10 01:40:33;;;;;;;14.63;3.35;;;;;;;;;;5054466;27;92782;-75
2022/06/10 01:43:09;;;;;;;19.17;3.88;;;;;;;;;;5053780;27;92659;-75
2022/06/10 01:45:35;;;;;;;18.90;4.00;;;;;;;;;;5046538;27;92986;-75
2022/06/10 01:48:22;;;;;;;18.45;3.22;;;;;;;;;;5050506;27;95857;-75
2022/06/10 01:50:53;;;;;;;16.73;3.70;;;;;;;;;;5052189;27;92584;-75
2022/06/10 01:53:29;;;;;;;14.88;2.83;;;;;;;;;;5052011;27;92989;-75
2022/06/10 01:55:55;;;;;;;13.35;3.55;;;;;;;;;;5040621;27;93227;-75
2022/06/10 01:58:28;;;;;;;15.93;3.88;;;;;;;;;;5053478;27;92419;-75
2022/06/10 02:01:01;;;;;;;16.90;3.15;;;;;;;;;;5056084;27;94990;-75
2022/06/10 02:03:31;;;;;;;17.55;3.47;;;;;;;;;;5051849;27;92548;-75
2022/06/10 02:06:00;;;;;;;14.83;3.07;;;;;;;;;;5030066;27;93099;-75
2022/06/10 02:08:29;;;;;;;15.98;3.17;;;;;;;;;;5050331;27;93443;-75
2022/06/10 02:10:55;;;;;;;17.45;3.35;;;;;;;;;;5054234;27;92449;-75
2022/06/10 02:13:25;;;;;;;21.27;3.25;;;;;;;;;;5049095;27;96907;-75
2022/06/10 02:15:54;;;;;;;15.90;3.60;;;;;;;;;;5052251;27;93106;-75
2022/06/10 02:18:25;;;;;;;15.38;3.22;;;;;;;;;;5051392;27;92490;-75
2022/06/10 02:20:54;;;;;;;16.65;3.47;;;;;;;;;;5055472;27;94143;-75
2022/06/10 02:23:23;;;;;;;19.48;3.47;;;;;;;;;;5059002;27;92723;-75
2022/06/10 02:25:51;;;;;;;16.95;3.47;;;;;;;;;;5053558;27;92303;-75
2022/06/10 02:28:22;;;;;;;12.98;3.33;;;;;;;;;;5053871;27;93208;-75
2022/06/10 02:30:49;;;;;;;14.35;3.13;;;;;;;;;;5055896;27;91820;-75
2022/06/10 02:33:15;;;;;;;15.18;3.60;;;;;;;;;;5069309;27;92531;-74
2022/06/10 02:35:54;;;;;;;12.13;2.63;;;;;;;;;;5062362;27;93447;-75
2022/06/10 02:38:27;;;;;;;9.82;2.63;;;;;;;;;;5061674;27;95311;-75
2022/06/10 02:41:00;;;;;;;20.75;3.42;;;;;;;;;;5063992;27;95451;-75
2022/06/10 02:43:34;;;;;;;16.52;3.67;;;;;;;;;;5049158;27;93538;-75
2022/06/10 02:46:08;;;;;;;15.32;3.38;;;;;;;;;;5050028;27;94335;-75
2022/06/10 02:48:53;;;;;;;15.82;3.50;;;;;;;;;;5058675;27;94505;-75
2022/06/10 02:51:20;;;;;;;13.48;3.08;;;;;;;;;;5043425;27;92497;-75
2022/06/10 02:53:46;;;;;;;13.48;3.40;;;;;;;;;;5061720;27;92982;-75
2022/06/10 02:56:17;;;;;;;13.10;3.50;;;;;;;;;;5053780;27;92693;-75
2022/06/10 03:01:38;;;;;;;11.35;3.10;;;;;;;;;;5042819;27;92932;-75
2022/06/10 03:04:07;;;;;;;18.17;3.13;;;;;;;;;;5053869;27;97032;-75
2022/06/10 03:06:47;;;;;;;12.30;2.88;;;;;;;;;;5060780;27;92526;-75
2022/06/10 03:09:13;;;;;;;13.57;2.63;;;;;;;;;;5054818;27;93328;-75
2022/06/10 03:11:55;;;;;;;12.75;3.25;;;;;;;;;;5048593;27;92603;-75
2022/06/10 03:14:38;;;;;;;9.77;2.83;;;;;;;;;;5061587;27;93166;-75
2022/06/10 03:17:40;;;;;;;12.70;2.83;;;;;;;;;;5069985;27;93452;-75
2022/06/10 03:20:22;;;;;;;21.30;3.20;;;;;;;;;;4981655;28;92494;-75
2022/06/10 03:22:57;;;;;;;13.27;3.38;;;;;;;;;;5013433;28;91795;-75
2022/06/10 03:25:36;;;;;;;13.82;3.47;;;;;;;;;;5014836;28;93230;-75
2022/06/10 03:28:02;;;;;;;19.20;3.65;;;;;;;;;;5013936;28;93276;-75
2022/06/10 03:30:38;;;;;;;11.90;2.63;;;;;;;;;;5024217;28;95006;-75
2022/06/10 03:33:16;;;;;;;15.18;3.28;;;;;;;;;;5013410;28;94197;-75
2022/06/10 03:35:51;;;;;;;18.33;3.22;;;;;;;;;;5007820;28;93392;-75
2022/06/10 03:38:17;;;;;;;11.18;2.70;;;;;;;;;;5023856;28;94597;-75
2022/06/10 03:40:50;;;;;;;13.68;3.08;;;;;;;;;;5033085;28;93246;-75
2022/06/10 03:43:17;;;;;;;11.63;3.03;;;;;;;;;;5016432;28;92993;-75
2022/06/10 03:45:45;;;;;;;14.57;2.80;;;;;;;;;;5012500;28;93680;-75
2022/06/10 03:48:18;;;;;;;14.50;3.00;;;;;;;;;;5020739;28;91744;-75
2022/06/10 03:50:47;;;;;;;15.98;3.25;;;;;;;;;;5012389;28;92511;-75
2022/06/10 03:53:15;;;;;;;20.33;3.42;;;;;;;;;;5032785;27;94388;-76
2022/06/10 03:55:41;;;;;;;17.30;3.30;;;;;;;;;;5055679;27;94930;-75
2022/06/10 03:58:09;;;;;;;13.02;3.38;;;;;;;;;;5058155;27;93444;-75
2022/06/10 04:00:36;;;;;;;13.48;3.15;;;;;;;;;;5079847;27;92539;-74
2022/06/10 04:03:03;;;;;;;19.88;3.30;;;;;;;;;;5068572;27;93278;-75
2022/06/10 04:05:29;;;;;;;12.40;2.70;;;;;;;;;;5077276;27;94478;-75
2022/06/10 04:07:56;;;;;;;11.70;2.83;;;;;;;;;;5075503;27;93966;-75
2022/06/10 04:10:24;;;;;;;13.65;2.83;;;;;;;;;;5083839;27;93664;-75
2022/06/10 04:12:50;;;;;;;11.50;2.90;;;;;;;;;;5082686;27;92527;-75
2022/06/10 04:15:17;;;;;;;20.65;3.13;;;;;;;;;;5076344;27;92499;-75
2022/06/10 04:17:44;;;;;;;16.23;2.75;;;;;;;;;;5074251;27;93428;-75
2022/06/10 04:20:20;;;;;;;17.63;2.60;;;;;;;;;;5079998;27;94945;-75
2022/06/10 04:22:46;;;;;;;11.80;2.30;;;;;;;;;;5085081;27;96439;-75
2022/06/10 04:25:13;;;;;;;15.80;2.65;;;;;;;;;;5076402;27;94053;-75
2022/06/10 04:27:40;;;;;;;17.90;2.85;;;;;;;;;;5084423;27;92433;-74
2022/06/10 04:30:07;;;;;;;15.65;3.00;;;;;;;;;;5082009;27;97322;-75
2022/06/10 04:32:34;;;;;;;12.40;2.75;;;;;;;;;;5073898;27;93506;-75
2022/06/10 04:35:00;;;;;;;18.25;2.60;;;;;;;;;;5077827;27;92520;-75
2022/06/10 04:37:26;;;;;;;14.45;2.50;;;;;;;;;;5083939;27;93027;-75
2022/06/10 04:39:53;;;;;;;17.27;3.10;;;;;;;;;;5077932;27;92575;-75
2022/06/10 04:42:19;;;;;;;16.23;2.67;;;;;;;;;;5085717;27;94176;-75
2022/06/10 04:44:45;;;;;;;14.65;2.92;;;;;;;;;;5074599;27;95817;-75
2022/06/10 04:47:12;;;;;;;18.90;2.80;;;;;;;;;;5076748;27;92869;-75
2022/06/10 04:49:39;;;;;;;22.98;3.45;;;;;;;;;;5078069;27;93090;-75
2022/06/10 04:52:05;;;;;;;23.17;2.78;;;;;;;;;;5075181;27;93092;-75
2022/06/10 04:54:32;;;;;;;17.20;2.53;;;;;;;;;;5085399;27;93317;-75
2022/06/10 04:56:58;;;;;;;22.48;3.17;;;;;;;;;;5080818;27;94134;-75
2022/06/10 04:59:24;;;;;;;15.90;3.20;;;;;;;;;;5076304;27;92303;-75
2022/06/10 05:01:51;;;;;;;15.82;2.22;;;;;;;;;;5077512;27;93040;-74
2022/06/10 05:04:17;;;;;;;16.92;2.88;;;;;;;;;;5050440;27;94630;-75
2022/06/10 05:06:44;;;;;;;16.60;2.55;;;;;;;;;;5072827;27;93992;-75
2022/06/10 05:09:15;;;;;;;21.27;3.33;;;;;;;;;;5084403;27;95261;-75
2022/06/10 05:11:42;;;;;;;15.25;2.22;;;;;;;;;;5083019;27;93363;-74
2022/06/10 05:14:10;;;;;;;14.45;2.47;;;;;;;;;;5070651;27;93929;-75
2022/06/10 05:16:37;;;;;;;11.52;2.05;;;;;;;;;;5065829;27;94055;-75
2022/06/10 05:19:03;;;;;;;15.68;2.63;;;;;;;;;;5090769;27;93446;-75
2022/06/10 05:21:30;;;;;;;12.70;2.63;;;;;;;;;;5064905;27;93072;-74
2022/06/10 05:23:56;;;;;;;10.88;3.38;;;;;;;;;;5060268;27;95090;-75
2022/06/10 05:26:22;;;;;;;16.13;2.95;;;;;;;;;;5055879;27;92437;-75
2022/06/10 05:28:51;;;;;;;14.68;2.83;;;;;;;;;;5053972;27;92458;-75
2022/06/10 05:31:18;;;;;;;20.27;2.60;;;;;;;;;;5064319;27;93554;-75
2022/06/10 05:36:29;;;;;;;18.48;3.13;;;;;;;;;;5052277;27;94413;-74
2022/06/10 05:38:55;;;;;;;16.85;3.00;;;;;;;;;;5057939;27;94278;-75
2022/06/10 05:44:07;;;;;;;13.80;2.67;;;;;;;;;;5051463;27;93197;-75
2022/06/10 05:46:33;;;;;;;15.48;2.90;;;;;;;;;;5063696;27;92478;-76
2022/06/10 05:48:59;;;;;;;14.85;2.42;;;;;;;;;;5058918;27;92976;-75
2022/06/10 05:51:26;;;;;;;18.13;3.25;;;;;;;;;;5053105;27;92760;-76
2022/06/10 05:53:52;;;;;;;13.98;2.80;;;;;;;;;;5056341;27;92925;-75
2022/06/10 05:56:18;;;;;;;12.45;2.70;;;;;;;;;;5048580;27;96631;-75
2022/06/10 05:58:45;;;;;;;14.32;2.35;;;;;;;;;;5054911;27;95919;-75
2022/06/10 06:01:11;;;;;;;9.25;2.22;;;;;;;;;;5019612;27;92555;-75
2022/06/10 06:03:37;;;;;;;9.07;2.70;;;;;;;;;;5057736;27;93580;-75
2022/06/10 06:06:04;;;;;;;14.18;2.58;;;;;;;;;;5025572;27;93200;-75
2022/06/10 06:08:30;;;;;;;17.92;2.67;;;;;;;;;;5063801;27;94024;-76
2022/06/10 06:10:56;;;;;;;12.10;2.60;;;;;;;;;;5054283;27;94469;-75
2022/06/10 06:13:23;;;;;;;18.52;3.03;;;;;;;;;;5051261;27;93080;-72
2022/06/10 06:15:49;;;;;;;16.38;3.47;;;;;;;;;;5055241;27;93002;-76
2022/06/10 06:18:20;;;;;;;;;;;;;;;;;;5069342;27;93439;-78
2022/06/10 06:20:46;;;;;;;17.63;2.97;;;;;;;;;;5054545;27;118334;-77
2022/06/10 06:23:12;;;;;;;14.38;2.50;;;;;;;;;;5070280;27;94919;-77
2022/06/10 06:25:38;;;;;;;9.80;2.90;;;;;;;;;;5051873;27;94114;-79
2022/06/10 06:28:05;;;;;;;16.85;2.95;;;;;;;;;;5053709;27;94484;-78
2022/06/10 06:30:34;;;;;;;10.93;2.72;;;;;;;;;;5055064;27;94147;-78
2022/06/10 06:33:02;;;;;;;14.82;2.47;;;;;;;;;;5054060;27;92535;-78
2022/06/10 06:35:29;;;;;;;13.60;2.65;;;;;;;;;;5058081;27;93721;-79
2022/06/10 06:37:56;;;;;;;13.20;2.40;;;;;;;;;;5057461;27;93284;-78
2022/06/10 06:40:23;;;;;;;14.55;2.63;;;;;;;;;;5056037;27;91811;-77
2022/06/10 06:42:49;;;;;;;16.98;2.88;;;;;;;;;;5056505;27;92783;-77
2022/06/10 06:45:16;;;;;;;14.98;2.63;;;;;;;;;;5059823;27;93489;-78
2022/06/10 06:47:51;;;;;;;13.07;2.75;;;;;;;;;;5070308;27;94886;-76
2022/06/10 06:50:20;;;;;;;9.68;2.53;;;;;;;;;;5040501;27;93425;-76
2022/06/10 06:52:46;;;;;;;17.52;3.63;;;;;;;;;;5058080;27;92416;-77
2022/06/10 06:55:13;;;;;;;12.38;2.58;;;;;;;;;;5055134;27;93237;-77
2022/06/10 06:57:39;;;;;;;9.35;2.80;;;;;;;;;;5054472;27;92435;-78
2022/06/10 07:00:06;;;;;;;13.38;3.15;;;;;;;;;;5056884;27;92468;-78
2022/06/10 07:02:33;;;;;;;16.50;3.25;;;;;;;;;;5054547;27;94505;-78
2022/06/10 07:05:00;;;;;;;16.92;3.08;;;;;;;;;;5037030;27;92686;-77
2022/06/10 07:07:26;;;;;;;13.10;3.08;;;;;;;;;;5060498;27;92503;-78
2022/06/10 07:09:53;;;;;;;15.55;3.15;;;;;;;;;;5066266;27;94737;-77
2022/06/10 07:12:19;;;;;;;20.08;3.25;;;;;;;;;;5055422;27;94830;-75
2022/06/10 07:14:45;;;;;;;16.65;2.70;;;;;;;;;;5069454;27;96630;-78
2022/06/10 07:17:11;;;;;;;12.50;2.95;;;;;;;;;;5057213;27;94383;-78
2022/06/10 07:19:38;;;;;;;14.63;2.58;;;;;;;;;;5054365;27;92469;-77
2022/06/10 07:22:05;;;;;;;19.38;3.50;;;;;;;;;;5057348;27;93219;-75
2022/06/10 07:24:32;;;;;;;9.90;2.78;;;;;;;;;;5060195;27;93443;-76
2022/06/10 07:27:03;;;;;;;12.10;3.08;;;;;;;;;;5054439;27;93868;-76
2022/06/10 07:29:29;;;;;;;15.35;3.50;;;;;;;;;;5060565;27;94259;-75
2022/06/10 07:31:56;;;;;;;20.00;3.58;;;;;;;;;;5056707;27;92595;-76
2022/06/10 07:34:22;;;;;;;15.10;3.15;;;;;;;;;;5057868;27;92919;-77
2022/06/10 07:36:48;;;;;;;16.85;3.72;;;;;;;;;;5054461;27;94789;-77
2022/06/10 07:39:15;;;;;;;13.70;3.30;;;;;;;;;;5056739;27;92515;-78
2022/06/10 07:41:56;;;;;;;14.65;3.28;;;;;;;;;;5056055;27;94043;-77
2022/06/10 07:44:24;;;;;;;15.50;3.00;;;;;;;;;;5056728;27;93628;-78
2022/06/10 07:46:51;;;;;;;20.50;3.50;;;;;;;;;;5060220;27;92457;-73
2022/06/10 07:49:18;;;;;;;14.65;3.25;;;;;;;;;;5054050;27;94199;-73
2022/06/10 07:51:46;;;;;;;11.15;3.85;;;;;;;;;;5057104;27;93564;-78
2022/06/10 07:54:13;;;;;;;19.13;3.33;;;;;;;;;;5077523;27;94180;-76
2022/06/10 07:56:40;;;;;;;14.43;3.78;;;;;;;;;;5070635;27;93238;-77
2022/06/10 07:59:07;;;;;;;14.80;3.40;;;;;;;;;;5060301;27;92367;-78
2022/06/10 08:01:33;;;;;;;14.25;3.72;;;;;;;;;;5047353;27;94947;-77
2022/06/10 08:04:00;;;;;;;15.45;3.20;;;;;;;;;;5038237;27;93584;-77
2022/06/10 08:06:28;;;;;;;15.02;2.58;;;;;;;;;;5055256;27;92531;-77
2022/06/10 08:08:55;;;;;;;12.73;2.50;;;;;;;;;;5054664;27;93128;-75
2022/06/10 08:11:21;;;;;;;12.77;2.78;;;;;;;;;;5060973;27;94563;-78
2022/06/10 08:13:48;;;;;;;12.02;2.53;;;;;;;;;;5063638;27;92366;-74
2022/06/10 08:16:14;;;;;;;9.32;3.40;;;;;;;;;;5064680;27;93504;-75
2022/06/10 08:18:41;;;;;;;15.02;3.30;;;;;;;;;;5055385;27;91865;-75
2022/06/10 08:24:01;;;;;;;12.55;2.67;;;;;;;;;;5056140;27;94093;-77
2022/06/10 08:26:28;;;;;;;11.55;2.70;;;;;;;;;;5025362;27;94833;-74
2022/06/10 08:28:54;;;;;;;11.80;2.78;;;;;;;;;;5053169;27;95594;-74
2022/06/10 08:31:21;;;;;;;8.88;2.35;;;;;;;;;;5055194;27;94204;-78
2022/06/10 08:33:47;;;;;;;12.75;2.47;;;;;;;;;;5056095;27;92403;-76
2022/06/10 08:36:14;;;;;;;12.20;2.67;;;;;;;;;;5056673;27;93460;-76
2022/06/10 08:38:44;;;;;;;16.85;2.97;;;;;;;;;;5057597;27;92477;-78
2022/06/10 08:41:19;;;;;;;12.00;3.05;;;;;;;;;;5056844;27;94250;-77
2022/06/10 08:43:47;;;;;;;12.80;3.28;;;;;;;;;;5056226;27;92631;-78
2022/06/10 08:46:22;;;;;;;19.02;2.78;;;;;;;;;;5039240;27;93985;-77
2022/06/10 08:48:57;;;;;;;17.85;2.63;;;;;;;;;;5076764;27;92463;-77
2022/06/10 08:51:29;;;;;;;13.15;2.80;;;;;;;;;;5075053;27;96092;-77
2022/06/10 08:54:02;;;;;;;17.60;3.25;;;;;;;;;;5061422;27;92515;-78
2022/06/10 08:56:36;;;;;;;11.30;3.72;;;;;;;;;;5052527;27;93199;-77
2022/06/10 08:59:23;;;;;;;10.32;2.17;;;;;;;;;;5076367;27;92443;-77
2022/06/10 09:02:03;;;;;;;9.23;2.67;;;;;;;;;;5053567;27;94004;-75
2022/06/10 09:04:35;;;;;;;11.90;2.70;;;;;;;;;;5055562;27;94808;-78
2022/06/10 09:07:09;;;;;;;15.95;2.40;;;;;;;;;;5053083;27;93004;-77
2022/06/10 09:09:35;;;;;;;12.25;3.00;;;;;;;;;;5054464;27;92925;-76
2022/06/10 09:12:11;;;;;;;10.05;2.90;;;;;;;;;;5048817;27;93442;-77
2022/06/10 09:14:38;;;;;;;10.07;2.60;;;;;;;;;;5060718;27;92435;-74
2022/06/10 09:17:07;;;;;;;17.90;3.47;;;;;;;;;;5044537;27;94893;-73
2022/06/10 09:19:52;;;;;;;10.93;2.65;;;;;;;;;;5051138;27;93292;-78
2022/06/10 09:22:32;;;;;;;12.68;3.03;;;;;;;;;;5056305;27;92977;-78
2022/06/10 09:25:11;;;;;;;15.82;3.13;;;;;;;;;;5056994;27;94336;-78
2022/06/10 09:27:39;;;;;;;16.58;3.15;;;;;;;;;;5072824;27;93640;-78
2022/06/10 09:30:07;;;;;;;14.05;2.92;;;;;;;;;;5074767;27;92972;-76
2022/06/10 09:32:33;;;;;;;14.50;2.83;;;;;;;;;;5075673;27;93223;-78
2022/06/10 09:35:04;;;;;;;14.93;2.90;;;;;;;;;;5076699;27;91678;-77
2022/06/10 09:37:42;;;;;;;9.82;3.00;;;;;;;;;;5073501;27;93596;-77
2022/06/10 09:43:07;;;;;;;11.30;2.92;;;;;;;;;;5075626;27;95035;-79
2022/06/10 09:45:36;;;;;;;11.82;2.80;;;;;;;;;;5074383;27;93341;-78
2022/06/10 09:48:10;;;;;;;15.23;3.70;;;;;;;;;;5072670;27;92505;-76
2022/06/10 09:51:02;;;;;;;10.68;2.42;;;;;;;;;;5072282;27;95852;-76
2022/06/10 09:53:33;;;;;;;14.35;2.55;;;;;;;;;;5071809;27;93282;-78
2022/06/10 09:56:05;;;;;;;7.53;2.20;;;;;;;;;;5064307;27;93599;-76
2022/06/10 09:58:40;;;;;;;11.38;2.88;;;;;;;;;;5055782;27;92951;-76
2022/06/10 10:01:22;;;;;;;19.88;3.42;;;;;;;;;;5071460;27;92488;-75
2022/06/10 10:03:59;;;;;;;12.05;2.58;;;;;;;;;;5074941;27;92462;-75
2022/06/10 10:06:45;;;;;;;12.07;3.45;;;;;;;;;;5070090;27;92962;-78
2022/06/10 10:09:11;;;;;;;10.27;2.78;;;;;;;;;;5061717;27;94954;-74
2022/06/10 10:11:45;;;;;;;17.05;3.45;;;;;;;;;;5063767;27;96183;-71
2022/06/10 10:14:18;;;;;;;18.63;3.22;;;;;;;;;;5058173;27;93359;-78
2022/06/10 10:16:53;;;;;;;15.30;3.35;;;;;;;;;;5068088;27;92532;-75
2022/06/10 10:19:31;;;;;;;18.48;3.63;;;;;;;;;;5069358;27;94087;-76
2022/06/10 10:22:16;;;;;;;11.35;2.85;;;;;;;;;;5069902;27;93504;-78
2022/06/10 10:24:43;;;;;;;10.80;2.92;;;;;;;;;;5072380;27;94397;-74
2022/06/10 10:27:14;;;;;;;9.90;2.63;;;;;;;;;;5074025;27;94052;-74
2022/06/10 10:29:42;;;;;;;15.15;2.88;;;;;;;;;;5088331;27;94323;-77
2022/06/10 10:32:15;;;;;;;14.38;2.88;;;;;;;;;;5070823;27;93245;-78
2022/06/10 10:34:45;;;;;;;10.05;2.40;;;;;;;;;;5070302;27;96895;-77
2022/06/10 10:37:29;;;;;;;20.27;3.60;;;;;;;;;;5070088;27;93336;-77
2022/06/10 10:40:07;;;;;;;10.40;2.80;;;;;;;;;;5068218;27;93125;-76
2022/06/10 10:42:35;;;;;;;20.85;3.90;;;;;;;;;;5074676;27;92609;-74
2022/06/10 10:45:07;;;;;;;14.50;2.70;;;;;;;;;;5073637;27;92640;-78
2022/06/10 10:47:35;;;;;;;9.07;2.75;;;;;;;;;;5073890;27;94268;-79
2022/06/10 10:50:03;;;;;;;11.65;2.45;;;;;;;;;;5073806;27;93633;-77
2022/06/10 10:52:36;;;;;;;13.35;2.90;;;;;;;;;;5072141;27;92737;-74
2022/06/10 10:55:05;;;;;;;14.05;2.63;;;;;;;;;;5059534;27;93884;-76
2022/06/10 10:57:33;;;;;;;14.73;2.72;;;;;;;;;;5073853;27;92527;-79
2022/06/10 11:00:03;;;;;;;14.07;2.72;;;;;;;;;;5072611;27;94838;-77
2022/06/10 11:02:34;;;;;;;5.95;2.08;;;;;;;;;;5073700;27;93363;-78
2022/06/10 11:05:18;;;;;;;11.80;2.33;;;;;;;;;;5069299;27;93974;-79
2022/06/10 11:07:46;;;;;;;8.35;2.63;;;;;;;;;;5068166;27;93012;-79
2022/06/10 11:10:20;;;;;;;11.57;2.65;;;;;;;;;;5072546;27;93389;-79
2022/06/10 11:12:48;;;;;;;7.30;1.83;;;;;;;;;;5077800;27;92664;-78
2022/06/10 11:15:21;;;;;;;6.03;1.90;;;;;;;;;;5073494;27;93254;-78
2022/06/10 11:17:49;;;;;;;8.35;2.38;;;;;;;;;;5074898;27;91729;-78
2022/06/10 11:20:15;;;;;;;5.60;1.83;;;;;;;;;;5073434;27;92633;-79
2022/06/10 11:22:44;;;;;;;9.35;1.83;;;;;;;;;;5057345;27;93500;-79
2022/06/10 11:25:14;;;;;;;8.30;1.55;;;;;;;;;;5046255;27;94852;-79
2022/06/10 11:27:50;;;;;;;5.63;1.92;;;;;;;;;;5057475;27;96286;-76
2022/06/10 11:30:20;;;;;;;6.13;2.10;;;;;;;;;;5056923;27;93188;-78
2022/06/10 11:32:47;;;;;;;8.65;2.00;;;;;;;;;;5057473;27;92475;-79
2022/06/10 11:35:31;;;;;;;10.10;1.90;;;;;;;;;;5040137;27;93254;-78
2022/06/10 11:38:15;;;;;;;15.63;2.45;;;;;;;;;;5056343;27;92500;-78
2022/06/10 11:40:48;;;;;;;11.05;2.63;;;;;;;;;;5057705;27;94229;-78
2022/06/10 11:43:18;;;;;;;11.50;2.45;;;;;;;;;;5057536;27;92535;-78
2022/06/10 11:46:05;;;;;;;10.48;2.83;;;;;;;;;;5038685;27;92416;-79
2022/06/10 11:48:50;;;;;;;6.30;1.90;;;;;;;;;;5056596;27;93255;-78
2022/06/10 11:51:35;;;;;;;9.95;2.08;;;;;;;;;;5037289;27;95483;-78
2022/06/10 11:54:15;;;;;;;6.55;1.83;;;;;;;;;;5037223;27;92714;-78
2022/06/10 11:59:52;;;;;;;7.68;1.90;;;;;;;;;;5059491;27;93362;-78
2022/06/10 12:02:18;;;;;;;10.45;1.95;;;;;;;;;;5056289;27;94182;-78
2022/06/10 12:04:48;;;;;;;5.03;1.95;;;;;;;;;;5056282;27;93636;-79
2022/06/10 12:07:19;;;;;;;12.52;1.80;;;;;;;;;;5056449;27;92480;-78
2022/06/10 12:09:48;;;;;;;9.68;2.47;;;;;;;;;;5056279;27;93004;-79
2022/06/10 12:12:16;;;;;;;10.30;2.35;;;;;;;;;;5055787;27;93400;-78
2022/06/10 12:14:42;;;;;;;5.60;1.67;;;;;;;;;;5056391;27;92495;-78
2022/06/10 12:17:27;;;;;;;6.57;1.70;;;;;;;;;;5054999;27;95040;-77
2022/06/10 12:20:04;;;;;;;9.23;2.30;;;;;;;;;;5054767;27;93605;-79
2022/06/10 12:22:31;;;;;;;8.15;1.90;;;;;;;;;;5059638;27;92408;-78
2022/06/10 12:24:58;;;;;;;11.68;2.05;;;;;;;;;;5056104;27;94049;-78
2022/06/10 12:27:27;;;;;;;10.23;2.38;;;;;;;;;;5056337;27;92595;-78
2022/06/10 12:30:06;;;;;;;4.57;1.70;;;;;;;;;;5055977;27;93211;-78
2022/06/10 12:32:44;;;;;;;8.10;2.00;;;;;;;;;;5055281;27;93558;-77
2022/06/10 12:35:19;;;;;;;7.82;2.05;;;;;;;;;;5037466;27;92116;-78
2022/06/10 12:37:48;;;;;;;9.02;1.80;;;;;;;;;;5056304;27;92473;-78
2022/06/10 12:40:20;;;;;;;3.92;1.80;;;;;;;;;;5055793;27;92774;-77
2022/06/10 12:42:52;;;;;;;5.78;2.08;;;;;;;;;;5054451;27;94895;-77
2022/06/10 12:45:24;;;;;;;6.95;2.10;;;;;;;;;;5040215;27;95807;-78
2022/06/10 12:48:01;;;;;;;9.00;2.13;;;;;;;;;;5055957;27;92424;-78
2022/06/10 12:50:30;;;;;;;9.60;2.58;;;;;;;;;;5056571;27;94367;-77
2022/06/10 12:53:05;;;;;;;9.60;2.38;;;;;;;;;;5056134;27;93514;-77
2022/06/10 12:55:36;;;;;;;7.03;2.33;;;;;;;;;;5056311;27;92485;-78
2022/06/10 12:58:03;;;;;;;7.75;2.30;;;;;;;;;;5056042;27;93482;-77
2022/06/10 13:00:38;;;;;;;6.85;2.10;;;;;;;;;;5051518;27;93977;-80
2022/06/10 13:03:13;;;;;;;10.77;2.88;;;;;;;;;;5053906;27;94115;-76
2022/06/10 13:05:40;;;;;;;8.68;2.47;;;;;;;;;;5057876;27;93301;-76
2022/06/10 13:08:25;;;;;;;8.52;2.33;;;;;;;;;;5053454;27;96344;-75
2022/06/10 13:10:57;;;;;;;9.15;2.55;;;;;;;;;;5053749;27;95653;-75
2022/06/10 13:13:23;;;;;;;9.38;2.28;;;;;;;;;;5055532;27;93585;-76
2022/06/10 13:15:51;;;;;;;10.45;2.70;;;;;;;;;;5055469;27;92529;-77
2022/06/10 13:18:18;;;;;;;9.68;2.03;;;;;;;;;;5054835;27;92911;-76
2022/06/10 13:20:45;;;;;;;10.98;2.33;;;;;;;;;;5051156;27;93334;-78
2022/06/10 13:23:27;;;;;;;6.70;2.28;;;;;;;;;;5042199;27;93955;-77
2022/06/10 13:26:05;;;;;;;10.23;2.33;;;;;;;;;;5052875;27;93239;-75
2022/06/10 13:28:36;;;;;;;13.60;2.65;;;;;;;;;;5040913;27;93931;-77
2022/06/10 13:31:05;;;;;;;10.57;2.40;;;;;;;;;;5052670;27;92875;-77
2022/06/10 13:33:31;;;;;;;8.32;2.22;;;;;;;;;;5058802;27;95746;-77
2022/06/10 13:35:58;;;;;;;7.07;2.33;;;;;;;;;;5054738;27;92639;-76
2022/06/10 13:38:27;;;;;;;7.20;2.15;;;;;;;;;;5054980;27;94325;-75
2022/06/10 13:43:44;;;;;;;5.78;1.70;;;;;;;;;;5065000;27;93817;-73
2022/06/10 13:46:13;;;;;;;9.80;2.35;;;;;;;;;;5061028;27;93099;-73
2022/06/10 13:48:40;;;;;;;8.70;2.90;;;;;;;;;;5060973;27;93879;-74
2022/06/10 13:51:25;;;;;;;8.75;2.83;;;;;;;;;;5041046;27;91729;-73
2022/06/10 13:53:59;;;;;;;11.68;2.95;;;;;;;;;;5066618;27;93167;-73
2022/06/10 13:56:27;;;;;;;11.23;3.40;;;;;;;;;;5055621;27;93598;-73
2022/06/10 13:58:55;;;;;;;6.80;2.20;;;;;;;;;;5056928;27;94909;-73
2022/06/10 14:01:24;;;;;;;12.85;2.10;;;;;;;;;;5075348;27;93285;-74
2022/06/10 14:03:53;;;;;;;7.25;2.40;;;;;;;;;;5057288;27;92408;-73
2022/06/10 14:06:22;;;;;;;7.82;2.60;;;;;;;;;;5055975;27;92452;-74
2022/06/10 14:09:03;;;;;;;9.77;2.80;;;;;;;;;;5075062;27;93305;-74
2022/06/10 14:11:38;;;;;;;7.82;2.45;;;;;;;;;;5034523;27;93214;-74
2022/06/10 14:14:07;;;;;;;6.75;2.97;;;;;;;;;;5037651;28;94223;-74
2022/06/10 14:16:34;;;;;;;7.45;2.45;;;;;;;;;;5046237;27;91797;-73
2022/06/10 14:19:10;;;;;;;7.18;2.25;;;;;;;;;;5051774;27;92470;-74
2022/06/10 14:21:36;;;;;;;8.00;3.13;;;;;;;;;;5050304;27;94426;-73
2022/06/10 14:24:29;;;;;;;14.00;2.83;;;;;;;;;;5053440;27;95478;-73
2022/06/10 14:27:03;;;;;;;13.38;3.70;;;;;;;;;;5053132;27;95553;-74
2022/06/10 14:29:41;;;;;;;10.75;3.10;;;;;;;;;;5052453;27;93556;-73
2022/06/10 14:32:28;;;;;;;13.40;3.67;;;;;;;;;;5045894;27;92488;-72
2022/06/10 14:34:57;;;;;;;14.40;3.40;;;;;;;;;;5054477;27;92419;-74
2022/06/10 14:37:25;;;;;;;10.05;3.33;;;;;;;;;;5057080;27;94305;-73
2022/06/10 14:40:10;;;;;;;8.32;2.97;;;;;;;;;;5053551;27;92999;-73
2022/06/10 14:42:37;;;;;;;12.52;3.60;;;;;;;;;;5064238;27;93760;-74
2022/06/10 14:45:22;;;;;;;12.98;3.10;;;;;;;;;;5054002;27;92720;-75
2022/06/10 14:48:05;;;;;;;9.27;2.95;;;;;;;;;;5057599;27;93382;-75
2022/06/10 14:50:52;;;;;;;18.52;3.83;;;;;;;;;;5037084;27;95891;-75
2022/06/10 14:53:20;;;;;;;12.32;3.50;;;;;;;;;;5043392;27;92368;-74
2022/06/10 14:55:48;;;;;;;11.30;3.13;;;;;;;;;;5041587;27;93185;-74
2022/06/10 14:58:16;;;;;;;11.25;3.33;;;;;;;;;;5056404;27;93549;-74
2022/06/10 15:00:44;;;;;;;8.48;3.35;;;;;;;;;;5062810;27;92491;-74
2022/06/10 15:03:20;;;;;;;10.50;2.75;;;;;;;;;;5071785;27;93234;-73
2022/06/10 15:08:32;;;;;;;21.48;3.42;;;;;;;;;;5056982;27;93430;-73
2022/06/10 15:11:04;;;;;;;9.23;3.45;;;;;;;;;;5047766;27;94400;-74
2022/06/10 15:13:32;;;;;;;8.73;3.05;;;;;;;;;;5060667;27;92399;-73
2022/06/10 15:15:58;;;;;;;8.95;2.97;;;;;;;;;;5067185;27;94775;-73